| Date | Time | Temp. (oF) | Dew Point (oF) | Rel. Hum. (%) | Press. (in.) | Wind Dir. | Wind Speed (mph) | Hourly Rainfall (in.) |
|
|---|---|---|---|---|---|---|---|---|---|
| 1 | 06/29 | 00:00 | 78 | 72 | 84 | 30.13 | S | 0 | 0.00 |
| 2 | 06/28 | 23:00 | 81 | 74 | 80 | 30.13 | SW | 1 | 0.00 |
| 3 | 06/28 | 22:00 | 84 | 72 | 68 | 30.13 | NW | 0 | 0.00 |
| 4 | 06/28 | 21:00 | 86 | 69 | 59 | 30.11 | NNW | 0 | 0.00 |
| 5 | 06/28 | 20:00 | 89 | 68 | 51 | 30.09 | N | 2 | 0.00 |
| 6 | 06/28 | 19:00 | 91 | 68 | 48 | 30.08 | NW | 6 | 0.00 |
| 7 | 06/28 | 18:00 | 92 | 69 | 48 | 30.08 | N | 4 | 0.00 |
| 8 | 06/28 | 17:00 | 93 | 70 | 48 | 30.09 | NW | 3 | 0.00 |
| 9 | 06/28 | 16:00 | 91 | 67 | 47 | 30.12 | WNW | 5 | 0.00 |
| 10 | 06/28 | 15:00 | 91 | 68 | 48 | 30.13 | WNW | 2 | 0.00 |
| 11 | 06/28 | 14:00 | 91 | 69 | 50 | 30.15 | W | 10 | 0.00 |
| 12 | 06/28 | 13:00 | 90 | 66 | 47 | 30.17 | WNW | 3 | 0.00 |
| 13 | 06/28 | 12:00 | 89 | 68 | 51 | 30.19 | NNW | 6 | 0.00 |
| 14 | 06/28 | 11:00 | 87 | 68 | 55 | 30.20 | NW | 4 | 0.00 |
| 15 | 06/28 | 10:00 | 84 | 72 | 68 | 30.21 | NW | 3 | 0.00 |
| 16 | 06/28 | 09:00 | 81 | 71 | 72 | 30.22 | NNW | 4 | 0.00 |
| 17 | 06/28 | 08:00 | 78 | 71 | 81 | 30.22 | WNW | 1 | 0.00 |
| 18 | 06/28 | 07:00 | 75 | 71 | 90 | 30.21 | SW | 1 | 0.00 |
| 19 | 06/28 | 06:00 | 73 | 70 | 91 | 30.21 | ESE | 1 | 0.00 |
| 20 | 06/28 | 05:00 | 74 | 71 | 91 | 30.20 | NW | 0 | 0.00 |
| 21 | 06/28 | 04:00 | 74 | 70 | 90 | 30.20 | WSW | 0 | 0.00 |
| 22 | 06/28 | 03:00 | 76 | 72 | 88 | 30.20 | WSW | 0 | 0.00 |
| 23 | 06/28 | 02:00 | 77 | 71 | 84 | 30.21 | WSW | 0 | 0.00 |
| 24 | 06/28 | 01:00 | 78 | 72 | 83 | 30.22 | SW | 1 | 0.00 |